Track Слепенков Матвей

Time Latitude Longitude Accuracy (66% radius in meters) Altitude (meters) Speed (km/hour) Bearing (degrees) Battery (%) GPS flag
07:20:25 57.212582 60.113612 0 0 0 0 1 delete
07:20:22 57.212496 60.113490 0 0 0 0 1 delete
07:20:19 57.212443 60.113378 0 0 0 0 1 delete
07:20:16 57.212460 60.113206 0 0 0 0 1 delete
07:20:14 57.212457 60.113071 0 0 0 0 1 delete
07:20:11 57.212436 60.112895 0 0 0 0 1 delete
07:20:09 57.212370 60.112828 0 0 0 0 1 delete
07:20:06 57.212297 60.112897 0 0 0 0 1 delete
07:20:03 57.212218 60.112799 0 0 0 0 1 delete
07:20:01 57.212151 60.112668 0 0 0 0 1 delete
07:19:59 57.212051 60.112620 0 0 0 0 1 delete
07:19:57 57.211965 60.112655 0 0 0 0 1 delete
07:19:54 57.211874 60.112685 0 0 0 0 1 delete
07:19:51 57.211828 60.112577 0 0 0 0 1 delete
07:19:48 57.211807 60.112444 0 0 0 0 1 delete
07:19:43 57.211833 60.112338 0 0 0 0 1 delete
07:19:39 57.211841 60.112219 0 0 0 0 1 delete
07:19:36 57.211819 60.112096 0 0 0 0 1 delete
07:19:32 57.211789 60.111955 0 0 0 0 1 delete
07:19:26 57.211746 60.111846 0 0 0 0 1 delete
07:19:22 57.211775 60.111706 0 0 0 0 1 delete
07:19:18 57.211802 60.111542 0 0 0 0 1 delete
07:19:15 57.211765 60.111383 0 0 0 0 1 delete
07:19:12 57.211684 60.111272 0 0 0 0 1 delete
07:19:09 57.211610 60.111251 0 0 0 0 1 delete
07:19:05 57.211518 60.111224 0 0 0 0 1 delete
07:19:01 57.211423 60.111231 0 0 0 0 1 delete
07:18:57 57.211344 60.111206 0 0 0 0 1 delete
07:18:52 57.211261 60.111247 0 0 0 0 1 delete
07:18:46 57.211176 60.111222 0 0 0 0 1 delete
07:18:40 57.211096 60.111225 0 0 0 0 1 delete
07:18:33 57.211044 60.111338 0 0 0 0 1 delete
07:18:28 57.211028 60.111466 0 0 0 0 1 delete
07:18:24 57.211023 60.111597 0 0 0 0 1 delete
07:18:16 57.211065 60.111720 0 0 0 0 1 delete
07:18:08 57.211076 60.111835 0 0 0 0 1 delete
07:17:57 57.211114 60.111927 0 0 0 0 1 delete
07:17:53 57.211124 60.112058 0 0 0 0 1 delete
07:17:50 57.211110 60.112199 0 0 0 0 1 delete
07:17:47 57.211085 60.112356 0 0 0 0 1 delete
07:17:44 57.211044 60.112505 0 0 0 0 1 delete
07:17:39 57.210966 60.112509 0 0 0 0 1 delete
07:17:35 57.210871 60.112414 0 0 0 0 1 delete
07:17:32 57.210780 60.112364 0 0 0 0 1 delete
07:17:29 57.210698 60.112295 0 0 0 0 1 delete
07:17:26 57.210614 60.112239 0 0 0 0 1 delete
07:17:23 57.210513 60.112191 0 0 0 0 1 delete
07:17:21 57.210444 60.112175 0 0 0 0 1 delete
07:17:19 57.210372 60.112189 0 0 0 0 1 delete
07:17:17 57.210299 60.112261 0 0 0 0 1 delete